Time;durP1;ratioP1;P1;durP2;ratioP2;P2;SDS_P1;SDS_P2;PMS_P1;PMS_P2;Temp;Humidity;BMP_temperature;BMP_pressure;BME280_temperature;BME280_humidity;BME280_pressure;Samples;Min_cycle;Max_cycle;Signal;HPM_P1;HPM_P2
2022/07/10 00:00:25;;;;;;;7.43;1.75;;;;;;;16.15;63.05;102811.41;6306518;22;20003;-80
2022/07/10 00:02:52;;;;;;;7.45;1.83;;;;;;;16.14;63.15;102814.81;6304846;22;20003;-80
2022/07/10 00:05:18;;;;;;;5.60;1.30;;;;;;;16.14;63.12;102813.91;6305655;22;19999;-79
2022/07/10 00:07:44;;;;;;;7.90;2.25;;;;;;;16.14;63.27;102814.81;6305806;22;20007;-79
2022/07/10 00:10:09;;;;;;;6.63;1.80;;;;;;;16.07;63.54;102812.81;6304195;22;20305;-81
2022/07/10 00:12:35;;;;;;;8.45;2.15;;;;;;;16.03;63.39;102806.66;6304366;22;20061;-80
2022/07/10 00:15:01;;;;;;;7.20;2.00;;;;;;;16.00;63.54;102803.03;6305878;22;20008;-77
2022/07/10 00:17:27;;;;;;;6.57;1.83;;;;;;;16.04;63.77;102803.22;6306221;22;20003;-78
2022/07/10 00:19:52;;;;;;;7.55;2.53;;;;;;;15.96;63.82;102789.09;6277042;22;20037;-74
2022/07/10 00:22:18;;;;;;;7.45;1.90;;;;;;;15.97;64.36;102796.03;6276913;22;20026;-80
2022/07/10 00:24:43;;;;;;;8.15;2.13;;;;;;;15.95;63.89;102795.09;6305911;22;20434;-80
2022/07/10 00:27:09;;;;;;;8.15;1.90;;;;;;;15.94;64.08;102797.63;6304851;22;20018;-79
2022/07/10 00:29:34;;;;;;;8.52;2.35;;;;;;;15.95;64.35;102794.19;6304845;22;20438;-79
2022/07/10 00:31:59;;;;;;;8.57;2.40;;;;;;;15.99;64.24;102796.97;6304257;22;20011;-79
2022/07/10 00:34:25;;;;;;;6.70;2.30;;;;;;;15.92;64.24;102787.19;6303450;22;20426;-80
2022/07/10 00:36:50;;;;;;;10.40;2.30;;;;;;;15.93;64.55;102795.88;6304819;22;20042;-78
2022/07/10 00:39:15;;;;;;;4.05;1.92;;;;;;;15.92;64.55;102794.97;6278871;22;20038;-79
2022/07/10 00:41:41;;;;;;;4.97;1.85;;;;;;;15.89;64.64;102787.06;6278801;22;20010;-79
2022/07/10 00:44:06;;;;;;;7.85;2.25;;;;;;;15.86;64.90;102792.16;6276823;22;20029;-78
2022/07/10 00:46:32;;;;;;;6.00;2.10;;;;;;;15.94;64.56;102784.66;6276249;22;20030;-80
2022/07/10 00:48:58;;;;;;;7.72;2.53;;;;;;;15.95;64.97;102774.31;6278240;22;20365;-80
2022/07/10 00:51:29;;;;;;;5.22;2.03;;;;;;;15.96;65.25;102786.50;6304745;22;20440;-79
2022/07/10 00:53:56;;;;;;;4.15;2.08;;;;;;;15.95;65.23;102787.28;6306192;22;20108;-79
2022/07/10 00:56:26;;;;;;;5.20;1.80;;;;;;;15.91;65.16;102784.56;6304531;22;20007;-79
2022/07/10 00:58:51;;;;;;;9.40;2.10;;;;;;;15.86;65.64;102779.19;6304876;22;20092;-80
2022/07/10 01:01:18;;;;;;;9.10;2.92;;;;;;;15.78;65.78;102776.31;6304573;22;20038;-79
2022/07/10 01:03:45;;;;;;;5.15;1.80;;;;;;;15.79;65.38;102770.31;6307077;22;20088;-79
2022/07/10 01:06:12;;;;;;;6.88;1.60;;;;;;;15.72;65.52;102757.06;6303284;22;20082;-79
2022/07/10 01:08:38;;;;;;;5.78;1.88;;;;;;;15.61;65.80;102759.22;6306323;22;20035;-79
2022/07/10 01:11:04;;;;;;;7.53;1.83;;;;;;;15.71;66.00;102758.78;6304554;22;20531;-80
2022/07/10 01:13:29;;;;;;;3.65;1.40;;;;;;;15.65;66.15;102748.19;6304700;22;20541;-80
2022/07/10 01:15:55;;;;;;;7.50;1.80;;;;;;;15.60;66.33;102756.56;6306088;22;20021;-76
2022/07/10 01:18:21;;;;;;;5.32;1.67;;;;;;;15.69;66.25;102743.97;6305378;22;20011;-78
2022/07/10 01:20:51;;;;;;;6.95;1.88;;;;;;;15.60;66.54;102741.00;6306250;22;20027;-79
2022/07/10 01:23:16;;;;;;;4.38;1.75;;;;;;;15.62;66.31;102744.53;6303908;22;20011;-79
2022/07/10 01:25:42;;;;;;;8.40;1.83;;;;;;;15.60;66.37;102751.38;6304635;22;20007;-76
2022/07/10 01:28:07;;;;;;;4.07;1.52;;;;;;;15.57;66.67;102757.31;6305297;22;20007;-79
2022/07/10 01:30:32;;;;;;;6.00;1.65;;;;;;;15.44;67.08;102748.19;6304843;22;20061;-79
2022/07/10 01:32:58;;;;;;;7.57;2.08;;;;;;;15.45;66.89;102755.16;6275568;22;20003;-80
2022/07/10 01:35:23;;;;;;;4.60;1.77;;;;;;;15.38;67.28;102758.34;6303191;22;20384;-80
2022/07/10 01:37:49;;;;;;;5.90;1.90;;;;;;;15.45;67.26;102757.75;6303025;22;20341;-80
2022/07/10 01:40:14;;;;;;;5.32;1.90;;;;;;;15.39;67.25;102760.09;6277665;22;20018;-80
2022/07/10 01:42:40;;;;;;;3.83;1.55;;;;;;;15.38;67.63;102753.16;6305000;22;20018;-80
2022/07/10 01:45:09;;;;;;;5.55;1.88;;;;;;;15.29;67.85;102751.09;6277496;22;20034;-79
2022/07/10 01:47:35;;;;;;;6.25;1.80;;;;;;;15.20;67.97;102755.03;6277528;22;20014;-80
2022/07/10 01:50:00;;;;;;;6.63;1.70;;;;;;;15.13;68.25;102755.63;6304557;22;20026;-80
2022/07/10 01:52:26;;;;;;;8.50;2.20;;;;;;;15.08;68.63;102754.53;6306587;22;20390;-80
2022/07/10 01:54:51;;;;;;;4.97;1.80;;;;;;;15.11;68.87;102752.97;6305648;22;20004;-81
2022/07/10 01:57:17;;;;;;;6.30;2.10;;;;;;;15.05;68.66;102744.09;6304166;22;20026;-80
2022/07/10 01:59:43;;;;;;;7.60;1.75;;;;;;;15.10;68.56;102745.13;6304537;22;20330;-79
2022/07/10 02:02:09;;;;;;;4.63;2.10;;;;;;;15.08;68.71;102744.19;6305516;22;20441;-80
2022/07/10 02:04:43;;;;;;;6.05;1.95;;;;;;;15.03;69.05;102744.00;6277235;22;20007;-80
2022/07/10 02:07:09;;;;;;;4.88;1.90;;;;;;;15.10;68.65;102737.34;6279813;22;20011;-80
2022/07/10 02:09:35;;;;;;;6.00;2.00;;;;;;;15.06;68.89;102738.94;6305589;22;20019;-77
2022/07/10 02:12:01;;;;;;;5.45;2.08;;;;;;;14.99;69.01;102737.81;6303925;22;20014;-77
2022/07/10 02:14:27;;;;;;;5.03;1.85;;;;;;;15.03;69.42;102738.81;6305954;22;20011;-80
2022/07/10 02:16:52;;;;;;;6.78;2.00;;;;;;;14.99;69.05;102731.75;6305653;22;20053;-80
2022/07/10 02:19:18;;;;;;;5.78;1.77;;;;;;;15.02;69.21;102742.22;6278192;22;20007;-79
2022/07/10 02:21:43;;;;;;;4.80;1.98;;;;;;;15.08;68.87;102757.13;6279318;22;20330;-80
2022/07/10 02:24:08;;;;;;;7.15;1.92;;;;;;;15.02;69.09;102743.13;6307610;22;20357;-80
2022/07/10 02:26:34;;;;;;;6.18;1.95;;;;;;;15.00;69.15;102755.13;6307455;22;20082;-78
2022/07/10 02:28:59;;;;;;;4.65;2.00;;;;;;;14.99;69.10;102749.91;6277398;22;20027;-79
2022/07/10 02:31:25;;;;;;;8.85;2.10;;;;;;;14.96;69.26;102745.47;6307058;22;20035;-79
2022/07/10 02:33:50;;;;;;;5.97;2.20;;;;;;;14.88;69.32;102744.28;6307003;22;20015;-80
2022/07/10 02:36:15;;;;;;;6.03;1.88;;;;;;;14.88;69.72;102744.28;6305188;22;20091;-77
2022/07/10 02:38:41;;;;;;;6.75;2.10;;;;;;;14.89;70.39;102729.63;6308433;22;20010;-79
2022/07/10 02:41:06;;;;;;;7.03;1.73;;;;;;;14.88;70.24;102738.22;6306179;22;20008;-80
2022/07/10 02:43:31;;;;;;;7.43;2.17;;;;;;;14.90;70.10;102742.63;6308215;22;20007;-80
2022/07/10 02:45:57;;;;;;;4.88;2.00;;;;;;;14.87;70.21;102732.16;6306305;22;20034;-80
2022/07/10 02:48:22;;;;;;;6.00;1.83;;;;;;;14.89;70.30;102735.69;6280832;22;20035;-80
2022/07/10 02:50:48;;;;;;;7.10;2.00;;;;;;;14.83;70.49;102727.66;6308163;22;20066;-80
2022/07/10 02:53:14;;;;;;;6.63;2.17;;;;;;;14.86;70.39;102727.78;6306077;22;20010;-80
2022/07/10 02:55:39;;;;;;;6.35;1.75;;;;;;;14.78;70.70;102717.94;6306959;22;20038;-79
2022/07/10 02:58:04;;;;;;;6.45;1.88;;;;;;;14.87;70.68;102716.63;6306705;22;20027;-80
2022/07/10 03:00:30;;;;;;;4.97;1.90;;;;;;;14.88;70.68;102720.09;6306147;22;20445;-80
2022/07/10 03:02:56;;;;;;;5.72;1.95;;;;;;;14.88;70.91;102715.78;6278717;22;20081;-79
2022/07/10 03:05:22;;;;;;;8.43;1.95;;;;;;;14.86;71.11;102717.41;6306970;22;20111;-80
2022/07/10 03:07:48;;;;;;;8.55;2.30;;;;;;;14.88;70.89;102712.31;6305179;22;20007;-80
2022/07/10 03:10:13;;;;;;;6.50;2.10;;;;;;;14.90;70.72;102721.91;6305679;22;20034;-78
2022/07/10 03:12:39;;;;;;;7.00;2.05;;;;;;;14.94;70.52;102721.22;6308121;22;20019;-79
2022/07/10 03:15:05;;;;;;;6.13;2.20;;;;;;;14.92;70.64;102725.44;6305053;22;20030;-78
2022/07/10 03:17:31;;;;;;;8.93;2.45;;;;;;;14.88;70.81;102726.16;6280135;22;20035;-80
2022/07/10 03:19:56;;;;;;;7.13;1.90;;;;;;;14.84;70.85;102728.56;6305901;22;20050;-79
2022/07/10 03:22:22;;;;;;;8.23;2.30;;;;;;;14.82;70.98;102725.03;6305711;22;20003;-80
2022/07/10 03:24:47;;;;;;;5.95;2.00;;;;;;;14.80;70.88;102724.94;6307366;22;20049;-79
2022/07/10 03:27:13;;;;;;;8.38;2.15;;;;;;;14.71;71.38;102728.06;6278962;22;20003;-80
2022/07/10 03:29:40;;;;;;;6.65;2.05;;;;;;;14.79;71.47;102717.13;6305851;22;20015;-79
2022/07/10 03:32:06;;;;;;;6.43;2.17;;;;;;;14.73;71.83;102721.22;6305983;22;20003;-78
2022/07/10 03:34:33;;;;;;;5.20;1.85;;;;;;;14.74;71.64;102710.06;6280673;22;20457;-80
2022/07/10 03:37:02;;;;;;;7.07;2.13;;;;;;;14.68;71.79;102714.09;6305497;22;20373;-77
2022/07/10 03:39:27;;;;;;;6.55;1.98;;;;;;;14.75;71.52;102713.53;6305301;22;20520;-80
2022/07/10 03:41:53;;;;;;;6.07;1.77;;;;;;;14.69;71.70;102714.16;6305832;22;20003;-80
2022/07/10 03:44:18;;;;;;;5.70;2.08;;;;;;;14.71;71.77;102716.81;6306468;22;20448;-79
2022/07/10 03:46:44;;;;;;;5.45;1.90;;;;;;;14.77;71.52;102706.69;6304187;22;20041;-79
2022/07/10 03:49:09;;;;;;;7.68;2.58;;;;;;;14.65;71.88;102703.63;6278617;22;20292;-80
2022/07/10 03:51:35;;;;;;;5.72;2.33;;;;;;;14.66;71.87;102702.78;6279193;22;20023;-79
2022/07/10 03:54:00;;;;;;;7.05;2.00;;;;;;;14.61;72.46;102712.94;6278509;22;20053;-80
2022/07/10 03:59:10;;;;;;;7.85;2.10;;;;;;;14.56;72.32;102706.72;6305635;22;20069;-76
2022/07/10 04:01:35;;;;;;;7.28;1.90;;;;;;;14.64;72.12;102710.50;6252875;22;20007;-78
2022/07/10 04:04:00;;;;;;;6.90;1.88;;;;;;;14.61;72.60;102706.88;6280290;22;20008;-79
2022/07/10 04:06:26;;;;;;;4.97;2.05;;;;;;;14.69;72.45;102710.69;6275746;22;20093;-78
2022/07/10 04:08:51;;;;;;;5.20;1.90;;;;;;;14.66;72.92;102713.16;6306962;22;20006;-79
2022/07/10 04:11:17;;;;;;;5.25;2.00;;;;;;;14.69;72.28;102714.16;6305259;22;20007;-80
2022/07/10 04:13:42;;;;;;;5.53;1.83;;;;;;;14.67;72.45;102710.63;6304858;22;20014;-79
2022/07/10 04:16:12;;;;;;;6.53;2.13;;;;;;;14.65;72.53;102696.72;6279223;22;20003;-79
2022/07/10 04:18:38;;;;;;;5.85;1.77;;;;;;;14.72;72.96;102674.56;6305470;22;20004;-80
2022/07/10 04:21:03;;;;;;;4.95;1.80;;;;;;;14.73;72.44;102699.63;6278258;22;20003;-80
2022/07/10 04:23:29;;;;;;;6.55;2.25;;;;;;;14.77;72.42;102693.75;6306277;22;20102;-80
2022/07/10 04:25:56;;;;;;;6.63;1.90;;;;;;;14.78;72.75;102705.00;6306101;22;20022;-80
2022/07/10 04:28:21;;;;;;;6.15;1.95;;;;;;;14.78;72.50;102708.47;6304266;22;20014;-79
2022/07/10 04:30:46;;;;;;;4.03;2.00;;;;;;;14.73;72.83;102697.03;6306752;22;20003;-79
2022/07/10 04:33:12;;;;;;;3.75;1.65;;;;;;;14.78;72.56;102710.19;6277188;22;20003;-78
2022/07/10 04:35:38;;;;;;;6.40;1.90;;;;;;;14.77;72.94;102704.13;6303107;22;20034;-75
2022/07/10 04:38:03;;;;;;;7.80;2.00;;;;;;;14.85;73.18;102707.00;6251064;22;20477;-79
2022/07/10 04:40:29;;;;;;;4.20;1.73;;;;;;;14.84;72.95;102706.13;6276313;22;20007;-79
2022/07/10 04:42:56;;;;;;;7.45;2.03;;;;;;;14.79;73.42;102702.47;6277647;22;20426;-76
2022/07/10 04:45:22;;;;;;;9.80;1.65;;;;;;;14.83;73.58;102712.13;6277658;22;20068;-79
2022/07/10 04:47:47;;;;;;;10.45;2.10;;;;;;;14.85;73.30;102713.06;6306369;22;20090;-76
2022/07/10 04:50:12;;;;;;;6.68;1.90;;;;;;;14.85;73.26;102709.59;6306570;22;20003;-80
2022/07/10 04:52:38;;;;;;;8.75;1.95;;;;;;;14.84;73.26;102711.28;6280606;22;20361;-80
2022/07/10 04:55:04;;;;;;;9.95;1.92;;;;;;;14.87;73.34;102703.66;6306628;22;20007;-80
2022/07/10 04:57:30;;;;;;;5.72;1.70;;;;;;;14.93;73.33;102693.53;6306027;22;20315;-80
2022/07/10 04:59:56;;;;;;;5.05;1.75;;;;;;;14.92;73.67;102686.56;6305933;22;20012;-80
2022/07/10 05:02:22;;;;;;;10.00;1.90;;;;;;;14.96;73.68;102710.91;6305165;22;20082;-81
2022/07/10 05:04:47;;;;;;;6.78;1.83;;;;;;;14.98;73.79;102717.03;6306574;22;20027;-80
2022/07/10 05:07:14;;;;;;;4.18;1.50;;;;;;;15.02;73.54;102709.44;6306946;22;20474;-79
2022/07/10 05:09:39;;;;;;;3.42;1.73;;;;;;;15.03;73.79;102724.16;6306778;22;20003;-79
2022/07/10 05:12:06;;;;;;;5.18;1.50;;;;;;;15.07;73.96;102719.09;6308260;22;20007;-80
2022/07/10 05:14:31;;;;;;;7.78;1.70;;;;;;;15.09;73.77;102717.44;6306219;22;20014;-80
2022/07/10 05:16:57;;;;;;;6.20;1.60;;;;;;;15.10;73.84;102725.28;6304161;22;20007;-77
2022/07/10 05:19:22;;;;;;;7.15;1.77;;;;;;;15.14;73.71;102721.97;6305089;22;20030;-79
2022/07/10 05:21:47;;;;;;;3.95;1.60;;;;;;;15.11;74.07;102714.09;6304974;22;20011;-78
2022/07/10 05:24:13;;;;;;;5.25;1.60;;;;;;;15.18;74.03;102713.50;6278272;22;20420;-80
2022/07/10 05:26:38;;;;;;;6.85;1.70;;;;;;;15.26;73.65;102706.03;6277719;22;20649;-77
2022/07/10 05:29:04;;;;;;;8.65;1.60;;;;;;;15.36;73.64;102713.34;6306099;22;20019;-79
2022/07/10 05:31:29;;;;;;;7.50;1.83;;;;;;;15.45;73.47;102717.97;6278320;22;20007;-80
2022/07/10 05:33:54;;;;;;;4.18;1.60;;;;;;;15.53;73.63;102714.84;6305794;22;20003;-77
2022/07/10 05:36:20;;;;;;;5.53;1.60;;;;;;;15.60;73.25;102715.09;6278126;22;20458;-80
2022/07/10 05:38:45;;;;;;;7.85;1.48;;;;;;;15.68;72.96;102716.28;6277323;22;20018;-80
2022/07/10 05:41:11;;;;;;;4.38;1.63;;;;;;;15.79;73.08;102720.13;6306749;22;20015;-79
2022/07/10 05:43:36;;;;;;;5.80;1.55;;;;;;;15.83;72.87;102709.03;6305319;22;20007;-80
2022/07/10 05:46:01;;;;;;;6.80;1.73;;;;;;;15.97;72.74;102717.31;6304740;22;20078;-81
2022/07/10 05:48:27;;;;;;;6.80;1.70;;;;;;;16.08;72.76;102716.88;6306237;22;20440;-80
2022/07/10 05:50:52;;;;;;;6.35;1.88;;;;;;;16.17;72.04;102723.19;6278305;22;20003;-80
2022/07/10 05:53:19;;;;;;;7.10;1.60;;;;;;;16.16;71.82;102705.88;6304750;22;20026;-81
2022/07/10 05:55:46;;;;;;;8.10;1.73;;;;;;;16.32;71.29;102711.63;6305234;22;20015;-79
2022/07/10 05:58:12;;;;;;;7.63;1.50;;;;;;;16.36;71.03;102710.00;6304810;22;20491;-78
2022/07/10 06:00:37;;;;;;;7.75;1.65;;;;;;;16.42;70.62;102705.03;6305895;22;20007;-79
2022/07/10 06:03:03;;;;;;;9.48;1.40;;;;;;;16.50;70.00;102701.00;6306867;22;20044;-79
2022/07/10 06:05:28;;;;;;;6.72;1.20;;;;;;;16.57;70.51;102700.34;6280272;22;20007;-79
2022/07/10 06:07:54;;;;;;;7.35;1.27;;;;;;;16.68;70.29;102702.38;6307269;22;20315;-80
2022/07/10 06:10:20;;;;;;;7.30;1.60;;;;;;;16.76;69.88;102703.56;6281796;22;20058;-77
2022/07/10 06:12:45;;;;;;;7.72;1.48;;;;;;;16.87;69.65;102705.69;6306465;22;20338;-79
2022/07/10 06:15:11;;;;;;;4.25;1.27;;;;;;;16.99;68.95;102704.31;6307538;22;20647;-79
2022/07/10 06:17:36;;;;;;;8.10;1.80;;;;;;;17.01;68.46;102700.91;6308003;22;20014;-76
2022/07/10 06:20:02;;;;;;;6.97;1.38;;;;;;;17.12;68.02;102703.84;6305414;22;20041;-79
2022/07/10 06:22:31;;;;;;;7.05;1.50;;;;;;;17.20;67.45;102702.34;6278635;22;20004;-79
2022/07/10 06:24:58;;;;;;;9.30;1.83;;;;;;;17.10;65.26;102708.97;6279503;22;20007;-77
2022/07/10 06:27:23;;;;;;;6.20;1.60;;;;;;;17.03;65.95;102700.94;6304362;22;20003;-76
2022/07/10 06:29:48;;;;;;;5.60;1.30;;;;;;;16.99;65.63;102694.78;6305869;22;20035;-78
2022/07/10 06:32:14;;;;;;;9.50;1.63;;;;;;;17.18;65.87;102708.34;6306112;22;20014;-77
2022/07/10 06:34:39;;;;;;;5.50;1.50;;;;;;;17.19;66.24;102692.78;6304384;22;20034;-78
2022/07/10 06:37:05;;;;;;;7.88;1.75;;;;;;;17.26;65.96;102692.13;6300235;22;20007;-78
2022/07/10 06:39:34;;;;;;;7.05;1.63;;;;;;;17.35;65.52;102699.28;6306864;22;20015;-78
2022/07/10 06:42:00;;;;;;;9.77;1.40;;;;;;;17.37;65.53;102702.84;6303927;22;20023;-77
2022/07/10 06:44:25;;;;;;;5.78;1.38;;;;;;;17.34;64.99;102707.94;6304194;22;20014;-79
2022/07/10 06:49:35;;;;;;;8.70;1.33;;;;;;;17.42;65.20;102709.94;6303046;22;20018;-78
2022/07/10 06:52:00;;;;;;;7.35;1.45;;;;;;;17.33;65.11;102706.19;6304998;22;20015;-78
2022/07/10 06:54:27;;;;;;;5.03;1.30;;;;;;;17.38;65.43;102704.59;6306658;22;20037;-79
2022/07/10 06:56:52;;;;;;;10.18;1.42;;;;;;;17.36;65.91;102701.09;6278860;22;20031;-78
2022/07/10 06:59:18;;;;;;;11.23;1.73;;;;;;;17.36;65.87;102698.50;6278700;22;20038;-79
2022/07/10 07:01:43;;;;;;;6.53;1.40;;;;;;;17.41;65.63;102697.78;6277683;22;20003;-77
2022/07/10 07:04:10;;;;;;;7.85;1.30;;;;;;;17.40;66.19;102695.13;6307406;22;20039;-79
2022/07/10 07:06:36;;;;;;;7.20;1.70;;;;;;;17.47;65.36;102701.38;6306469;22;20087;-80
2022/07/10 07:09:01;;;;;;;9.20;1.40;;;;;;;17.52;65.37;102692.88;6308847;22;20007;-79
2022/07/10 07:11:26;;;;;;;9.52;1.45;;;;;;;17.49;65.05;102703.19;6307108;22;20010;-77
2022/07/10 07:13:52;;;;;;;8.38;1.65;;;;;;;17.56;65.81;102704.25;6307819;22;20088;-78
2022/07/10 07:16:20;;;;;;;6.57;1.40;;;;;;;17.58;65.32;102710.38;6308304;22;20014;-78
2022/07/10 07:18:51;;;;;;;10.85;1.48;;;;;;;17.53;65.78;102705.03;6307457;22;20022;-79
2022/07/10 07:24:01;;;;;;;6.97;1.83;;;;;;;17.55;65.38;102716.38;6306710;22;20022;-78
2022/07/10 07:26:26;;;;;;;7.88;1.75;;;;;;;17.54;65.36;102706.81;6307222;22;20011;-78
2022/07/10 07:28:51;;;;;;;9.32;1.95;;;;;;;17.48;65.27;102711.84;6307028;22;20019;-78
2022/07/10 07:31:18;;;;;;;8.35;1.75;;;;;;;17.52;65.38;102712.78;6280368;22;20368;-79
2022/07/10 07:33:43;;;;;;;7.93;1.98;;;;;;;17.57;66.34;102716.41;6280499;22;20010;-79
2022/07/10 07:36:09;;;;;;;13.77;2.17;;;;;;;17.61;66.50;102713.97;6306931;22;20003;-78
2022/07/10 07:38:34;;;;;;;7.95;2.53;;;;;;;17.65;66.43;102710.63;6306738;22;20003;-79
2022/07/10 07:41:00;;;;;;;7.82;2.08;;;;;;;17.67;66.44;102711.53;6306583;22;20011;-79
2022/07/10 07:43:26;;;;;;;9.68;2.08;;;;;;;17.64;65.84;102707.94;6280328;22;20027;-79
2022/07/10 07:45:51;;;;;;;7.60;2.22;;;;;;;17.68;66.43;102712.41;6308133;22;20006;-79
2022/07/10 07:48:17;;;;;;;7.45;2.30;;;;;;;17.67;66.15;102708.94;6307385;22;20084;-78
2022/07/10 07:50:42;;;;;;;8.18;2.30;;;;;;;17.66;66.30;102717.56;6307095;22;20104;-79
2022/07/10 07:53:07;;;;;;;11.02;2.80;;;;;;;17.64;66.18;102700.13;6307995;22;20008;-79
2022/07/10 07:55:34;;;;;;;10.25;2.58;;;;;;;17.62;66.62;102712.22;6307205;22;20007;-79
2022/07/10 07:58:00;;;;;;;7.80;2.13;;;;;;;17.60;66.19;102706.13;6279996;22;20042;-79
2022/07/10 08:00:28;;;;;;;7.22;1.98;;;;;;;17.57;66.73;102714.69;6281256;22;20049;-79
2022/07/10 08:02:56;;;;;;;10.13;1.70;;;;;;;17.58;66.32;102715.56;6279097;22;20483;-78
2022/07/10 08:05:23;;;;;;;6.43;1.60;;;;;;;17.60;67.23;102712.19;6308763;22;20015;-78
2022/07/10 08:07:57;;;;;;;7.00;2.10;;;;;;;17.61;66.64;102711.34;6307083;22;20007;-78
2022/07/10 08:10:26;;;;;;;8.30;1.77;;;;;;;17.59;66.33;102709.53;6307466;22;20368;-80
2022/07/10 08:12:52;;;;;;;6.38;1.83;;;;;;;17.57;66.36;102709.50;6308177;22;20003;-79
2022/07/10 08:15:21;;;;;;;11.82;2.05;;;;;;;17.57;66.43;102706.88;6307016;22;20003;-79
2022/07/10 08:17:50;;;;;;;7.95;1.90;;;;;;;17.62;66.44;102714.84;6281740;22;20034;-78
2022/07/10 08:20:17;;;;;;;7.82;2.00;;;;;;;17.65;66.80;102712.31;6307032;22;20377;-78
2022/07/10 08:22:43;;;;;;;7.78;2.25;;;;;;;17.61;66.94;102708.75;6254649;22;20018;-80
2022/07/10 08:25:09;;;;;;;5.35;2.33;;;;;;;17.66;66.57;102703.69;6308399;22;20007;-79
2022/07/10 08:27:35;;;;;;;8.18;2.50;;;;;;;17.68;66.62;102710.69;6306621;22;20030;-78
2022/07/10 08:30:05;;;;;;;9.30;2.33;;;;;;;17.67;66.50;102715.84;6306643;22;20016;-77
2022/07/10 08:32:31;;;;;;;6.72;2.08;;;;;;;17.67;66.89;102710.66;6305696;22;20022;-78
2022/07/10 08:34:57;;;;;;;8.35;2.20;;;;;;;17.64;66.99;102703.63;6306522;22;20021;-77
2022/07/10 08:37:22;;;;;;;7.40;2.03;;;;;;;17.67;67.14;102701.13;6307276;22;20034;-78
2022/07/10 08:39:48;;;;;;;7.68;2.70;;;;;;;17.67;67.03;102692.44;6280995;22;20015;-78
2022/07/10 08:42:15;;;;;;;8.95;1.80;;;;;;;17.69;66.88;102707.25;6278746;22;20057;-77
2022/07/10 08:44:41;;;;;;;4.78;1.92;;;;;;;17.70;66.46;102698.59;6309503;22;20006;-77
2022/07/10 08:47:06;;;;;;;7.80;1.75;;;;;;;17.70;67.10;102703.78;6279790;22;20007;-77
2022/07/10 08:49:35;;;;;;;6.70;2.08;;;;;;;17.75;67.23;102710.88;6307274;22;20295;-78
2022/07/10 08:52:04;;;;;;;5.57;1.80;;;;;;;17.77;67.16;102711.81;6308088;22;20368;-78
2022/07/10 08:54:32;;;;;;;8.25;1.90;;;;;;;17.75;67.45;102710.88;6305457;22;20030;-78
2022/07/10 08:57:02;;;;;;;6.32;1.80;;;;;;;17.78;67.35;102718.78;6306489;22;20030;-78
2022/07/10 08:59:28;;;;;;;6.88;1.80;;;;;;;17.76;67.86;102710.91;6306244;22;20042;-78
2022/07/10 09:01:54;;;;;;;6.57;1.75;;;;;;;17.80;67.64;102719.72;6279188;22;20013;-78
2022/07/10 09:04:25;;;;;;;5.30;1.45;;;;;;;17.82;68.08;102718.91;6254545;22;20098;-78
2022/07/10 09:06:54;;;;;;;6.70;2.17;;;;;;;17.87;67.37;102716.44;6253955;22;20007;-78
2022/07/10 09:09:20;;;;;;;7.18;2.00;;;;;;;17.91;67.76;102713.09;6306056;22;20007;-78
2022/07/10 09:11:46;;;;;;;7.28;1.83;;;;;;;17.90;66.69;102712.22;6307818;22;20033;-78
2022/07/10 09:14:16;;;;;;;5.88;1.70;;;;;;;17.91;66.76;102707.88;6306794;22;20011;-78
2022/07/10 09:16:44;;;;;;;5.57;1.58;;;;;;;17.90;66.99;102700.91;6307394;22;20060;-77
2022/07/10 09:19:20;;;;;;;7.03;1.60;;;;;;;17.94;67.11;102701.03;6307733;22;20010;-77
2022/07/10 09:21:47;;;;;;;5.20;1.50;;;;;;;17.86;66.63;102689.53;6306709;22;20003;-77
2022/07/10 09:24:13;;;;;;;6.00;1.80;;;;;;;17.90;66.89;102696.59;6275684;22;20529;-78
2022/07/10 09:26:40;;;;;;;7.30;1.88;;;;;;;17.87;67.13;102686.09;6302885;22;20014;-79
2022/07/10 09:29:10;;;;;;;4.65;1.70;;;;;;;17.90;67.54;102683.56;6302713;22;20015;-77
2022/07/10 09:31:51;;;;;;;4.55;1.60;;;;;;;17.95;67.24;102689.75;6276058;22;20487;-78
2022/07/10 09:34:17;;;;;;;7.18;1.98;;;;;;;18.04;67.75;102681.34;6301339;22;20094;-78
2022/07/10 09:36:43;;;;;;;6.22;1.67;;;;;;;18.11;67.71;102688.44;6303781;22;20384;-78
2022/07/10 09:39:08;;;;;;;5.82;1.83;;;;;;;18.16;66.95;102685.97;6302569;22;20004;-78
2022/07/10 09:41:34;;;;;;;6.40;1.75;;;;;;;18.25;67.01;102682.72;6274850;22;20011;-76
2022/07/10 09:44:02;;;;;;;6.28;2.08;;;;;;;18.30;66.22;102679.38;6302093;22;20007;-77
2022/07/10 09:46:39;;;;;;;5.20;1.70;;;;;;;18.28;65.75;102672.38;6273925;22;20015;-77
2022/07/10 09:49:12;;;;;;;7.40;2.10;;;;;;;18.27;65.38;102668.03;6250691;22;20010;-75
2022/07/10 09:51:43;;;;;;;6.38;1.90;;;;;;;18.27;65.59;102681.94;6278399;22;20011;-77
2022/07/10 09:54:12;;;;;;;7.00;2.00;;;;;;;18.26;65.80;102674.97;6304535;22;20193;-78
2022/07/10 09:56:41;;;;;;;5.85;2.92;;;;;;;18.30;65.76;102681.09;6277128;22;20007;-77
2022/07/10 09:59:11;;;;;;;4.38;2.47;;;;;;;18.35;65.92;102677.78;6305008;22;20003;-78
2022/07/10 10:01:41;;;;;;;3.80;2.10;;;;;;;18.44;66.04;102671.91;6305546;22;20667;-78
2022/07/10 10:04:08;;;;;;;4.80;2.10;;;;;;;18.52;65.85;102675.59;6303887;22;20017;-77
2022/07/10 10:06:36;;;;;;;5.93;2.10;;;;;;;18.53;65.52;102668.66;6303468;22;20003;-77
2022/07/10 10:09:23;;;;;;;7.32;2.10;;;;;;;18.62;65.75;102676.69;6276079;22;20015;-79
2022/07/10 10:11:55;;;;;;;3.88;1.75;;;;;;;18.63;64.29;102670.66;6302779;22;19999;-76
2022/07/10 10:14:23;;;;;;;6.35;1.80;;;;;;;18.64;63.68;102668.06;6303496;22;20015;-76
2022/07/10 10:16:49;;;;;;;3.42;1.77;;;;;;;18.70;64.16;102673.47;6300930;22;20413;-77
2022/07/10 10:22:02;;;;;;;5.20;1.40;;;;;;;18.75;64.64;102669.25;6304038;22;20022;-76
2022/07/10 10:24:31;;;;;;;8.15;1.60;;;;;;;18.82;64.53;102674.59;6275237;22;20011;-78
2022/07/10 10:26:57;;;;;;;6.18;1.55;;;;;;;18.85;64.81;102666.81;6302871;22;20061;-78
2022/07/10 10:29:23;;;;;;;5.30;1.40;;;;;;;18.98;64.63;102658.44;6304318;22;20011;-77
2022/07/10 10:31:49;;;;;;;5.57;1.55;;;;;;;19.05;64.29;102660.34;6277392;22;20418;-77
2022/07/10 10:34:39;;;;;;;3.17;1.40;;;;;;;19.14;63.73;102667.47;6305445;22;20015;-78
2022/07/10 10:37:07;;;;;;;4.07;1.55;;;;;;;19.21;63.60;102662.41;6306576;22;20007;-73
2022/07/10 10:39:53;;;;;;;6.25;1.77;;;;;;;19.24;63.31;102657.28;6310377;22;20015;-73
2022/07/10 10:42:33;;;;;;;7.15;1.98;;;;;;;19.27;63.53;102657.31;6308681;22;20331;-72
2022/07/10 10:45:23;;;;;;;3.55;1.70;;;;;;;19.29;63.69;102660.88;6307226;22;20003;-73
2022/07/10 10:48:04;;;;;;;3.72;1.40;;;;;;;19.33;62.95;102659.19;6308167;22;20021;-73
2022/07/10 10:50:41;;;;;;;5.10;1.50;;;;;;;19.37;63.37;102658.41;6281999;22;20000;-71
2022/07/10 10:53:15;;;;;;;4.78;1.42;;;;;;;19.45;63.17;102666.38;6307093;22;20013;-72
2022/07/10 10:55:41;;;;;;;4.90;1.30;;;;;;;19.46;62.33;102655.09;6307700;22;20800;-72
2022/07/10 10:58:18;;;;;;;3.25;1.33;;;;;;;19.46;62.53;102653.34;6309136;22;20030;-73
2022/07/10 11:00:44;;;;;;;6.78;1.50;;;;;;;19.43;62.32;102642.00;6308050;22;20614;-72
2022/07/10 11:03:17;;;;;;;5.80;1.30;;;;;;;19.42;62.94;102641.13;6308436;22;20056;-71
2022/07/10 11:05:44;;;;;;;6.25;1.50;;;;;;;19.45;63.08;102645.50;6308820;22;20078;-72
2022/07/10 11:08:11;;;;;;;5.75;1.67;;;;;;;19.46;62.60;102642.03;6308549;22;20003;-72
2022/07/10 11:10:42;;;;;;;4.63;1.50;;;;;;;19.53;63.31;102636.09;6307553;22;20086;-73
2022/07/10 11:13:09;;;;;;;5.60;1.60;;;;;;;19.59;64.58;102643.19;6308325;22;19999;-75
2022/07/10 11:15:38;;;;;;;4.35;1.35;;;;;;;19.63;63.76;102640.66;6307761;22;19999;-73
2022/07/10 11:18:05;;;;;;;3.42;1.58;;;;;;;19.65;63.38;102638.09;6309066;22;20077;-72
2022/07/10 11:20:33;;;;;;;5.10;1.50;;;;;;;19.72;63.13;102640.84;6308389;22;20038;-72
2022/07/10 11:23:13;;;;;;;3.53;1.48;;;;;;;19.73;62.44;102633.91;6307616;22;20053;-74
2022/07/10 11:26:07;;;;;;;5.50;1.60;;;;;;;19.78;62.70;102633.16;6308715;22;20007;-73
2022/07/10 11:28:53;;;;;;;4.20;1.50;;;;;;;19.75;62.49;102633.06;6307870;22;20421;-73
2022/07/10 11:31:19;;;;;;;4.72;1.60;;;;;;;19.73;60.97;102642.63;6307597;22;20019;-77
2022/07/10 11:33:48;;;;;;;5.22;1.33;;;;;;;19.75;61.88;102640.03;6309072;22;20038;-78